Aérodrome :
LOGIN :

S'inscrire | Disclaimer

   EN    FR    IT 

 










Légende :    VFR   VFR Marginal   IFR   IFR Intensif   IFR Très Intensif
Visi : 
Plafond : 
>= 8 km
>= 3000ft
5 à 8 km
1000 à 3000 ft
1500m à 5 km
500 à 1000 ft
800 à 1500m
200 à 500 ft
< 800m
< 200 ft
Symboles :   Orages  Brouillard  Fortes neiges  Fortes précipitations  Vent > 20 kt
SIGMETs :   Divers  Orages  Givrage  Turbulence  Onde Orograph.  Cendres Volcan.






- Altitude de l'aérodrome : 313 ft


LFQA - Reims-Prunay

DERNIER METAR :
  • 161630Z AUTO 16012KT 4100 -SN BR OVC010/// ///TCU M01/M01 Q1020

METARs EXPIRÉS :
  • 161600Z AUTO 15007KT 120V180 3600 -SN BR OVC008 M01/M01 Q1021
  • 161530Z AUTO 14009KT 2700 -SN BR OVC009 M01/M01 Q1021
  • 161500Z AUTO 18006KT 2800 -SN BR OVC011 M01/M02 Q1022
  • 161430Z AUTO 15005KT 2000 -SN BR BKN008 OVC013 M01/M01 Q1022

TAF N/A



MET'MAP, la Météo Aéronautique d'un coup d'oeil ! - Copyright ORBIFLY Décembre 2007 - Disclaimer

ORBIFLY MET'MAP TEAM :

Programmation & Développement : Alexandra Zaïnal
Sur une idée originale de : Baudouin d'Aumeries
Assistance à la programmation : Marc-Olivier Méhu
Soutien technique & logistique : Manuel Goepfert

Contact : metmap@orbifly.com




SOURCES & CREDITS :

   NOAA